createdAt,value
2023-03-20T00:00:02.616Z,75
2023-03-20T00:20:03.172Z,75
2023-03-20T00:40:02.389Z,75
2023-03-20T01:00:02.788Z,75
2023-03-20T01:20:02.232Z,76
2023-03-20T01:40:02.519Z,76
2023-03-20T02:00:02.911Z,76
2023-03-20T02:20:02.584Z,76
2023-03-20T02:40:02.852Z,76
2023-03-20T03:00:03.327Z,76
2023-03-20T03:20:02.712Z,77
2023-03-20T03:40:03.120Z,79
2023-03-20T04:00:02.413Z,81
2023-03-20T04:20:02.950Z,81
2023-03-20T04:40:02.338Z,82
2023-03-20T05:00:02.938Z,82
2023-03-20T05:20:02.421Z,82
2023-03-20T05:40:02.713Z,82
2023-03-20T06:00:02.999Z,81
2023-03-20T06:20:02.341Z,80
2023-03-20T06:40:02.863Z,80
2023-03-20T07:00:03.140Z,81
2023-03-20T07:20:02.683Z,82
2023-03-20T07:40:02.908Z,83
2023-03-20T08:00:02.195Z,83
2023-03-20T08:20:02.738Z,83
2023-03-20T08:40:03.124Z,83
2023-03-20T09:00:05.568Z,82
2023-03-20T09:20:03.010Z,81
2023-03-20T09:40:02.364Z,80
2023-03-20T10:00:02.904Z,76
2023-03-20T10:20:02.613Z,74
2023-03-20T10:40:02.946Z,70
2023-03-20T11:00:02.463Z,70
2023-03-20T11:20:03.049Z,69
2023-03-20T11:40:02.351Z,68
2023-03-20T12:00:02.587Z,68
2023-03-20T12:20:03.321Z,67
2023-03-20T12:40:02.614Z,65
2023-03-20T13:00:02.876Z,66
2023-03-20T13:20:02.884Z,65
2023-03-20T13:40:02.327Z,64
2023-03-20T14:00:03.182Z,64
2023-03-20T14:20:02.616Z,65
2023-03-20T14:40:02.919Z,65
2023-03-20T15:00:02.307Z,66
2023-03-20T15:20:03.235Z,66
2023-03-20T15:40:02.517Z,67
2023-03-20T16:00:03.099Z,67
2023-03-20T16:20:03.030Z,67
2023-03-20T16:40:02.468Z,68
2023-03-20T17:00:02.848Z,68
2023-03-20T17:20:02.672Z,68
2023-03-20T17:40:03.302Z,67
2023-03-20T18:00:02.802Z,68
2023-03-20T18:20:02.538Z,68
2023-03-20T18:40:03.025Z,68
2023-03-20T19:00:02.495Z,69
2023-03-20T19:20:02.393Z,70
2023-03-20T19:40:02.770Z,70
2023-03-20T20:00:57.911Z,70
2023-03-20T20:20:02.438Z,70
2023-03-20T20:40:03.038Z,70
2023-03-20T21:00:02.448Z,70
2023-03-20T21:20:03.052Z,69
2023-03-20T21:40:02.348Z,70
2023-03-20T22:01:39.553Z,70
2023-03-20T22:21:15.865Z,70
2023-03-20T23:00:02.669Z,71
2023-03-20T23:20:14.988Z,71
2023-03-20T23:40:02.393Z,71
